createdAt,value
2023-05-25T00:01:43.957Z,10.90
2023-05-25T00:04:11.569Z,11.13
2023-05-25T00:06:41.127Z,10.13
2023-05-25T00:09:08.109Z,11.45
2023-05-25T00:11:34.948Z,11.10
2023-05-25T00:14:01.780Z,11.75
2023-05-25T00:16:28.643Z,11.55
2023-05-25T00:18:57.689Z,11.07
2023-05-25T00:21:25.761Z,11.02
2023-05-25T00:23:52.683Z,11.82
2023-05-25T00:26:19.494Z,11.45
2023-05-25T00:28:46.326Z,11.68
2023-05-25T00:31:13.155Z,11.52
2023-05-25T00:33:39.963Z,11.40
2023-05-25T00:36:08.888Z,12.25
2023-05-25T00:38:35.757Z,12.27
2023-05-25T00:41:02.557Z,12.68
2023-05-25T00:43:29.386Z,13.05
2023-05-25T00:45:56.324Z,12.10
2023-05-25T00:48:25.545Z,12.35
2023-05-25T00:50:58.006Z,12.10
2023-05-25T00:53:24.819Z,12.70
2023-05-25T00:55:54.450Z,11.98
2023-05-25T00:58:24.273Z,11.48
2023-05-25T01:00:53.489Z,11.80
2023-05-25T01:03:27.800Z,11.20
2023-05-25T01:05:56.158Z,11.57
2023-05-25T01:08:24.488Z,11.25
2023-05-25T01:10:53.508Z,10.93
2023-05-25T01:13:21.657Z,11.70
2023-05-25T01:15:50.002Z,11.25
2023-05-25T01:18:18.138Z,12.20
2023-05-25T01:21:13.278Z,11.60
2023-05-25T01:23:56.549Z,10.90
2023-05-25T01:26:27.500Z,11.60
2023-05-25T01:28:56.029Z,11.93
2023-05-25T01:31:23.945Z,12.60
2023-05-25T01:33:52.677Z,12.68
2023-05-25T01:36:20.204Z,11.05
2023-05-25T01:38:47.115Z,10.23
2023-05-25T01:41:13.968Z,11.68
2023-05-25T01:43:41.499Z,12.00
2023-05-25T01:46:37.184Z,11.30
2023-05-25T01:49:19.777Z,11.35
2023-05-25T01:52:05.829Z,11.52
2023-05-25T01:54:38.167Z,12.45
2023-05-25T01:57:10.778Z,12.30
2023-05-25T01:59:38.726Z,11.88
2023-05-25T02:02:06.911Z,11.88
2023-05-25T02:04:34.384Z,11.77
2023-05-25T02:07:01.440Z,13.13
2023-05-25T02:09:28.263Z,13.27
2023-05-25T02:11:55.087Z,13.13
2023-05-25T02:14:22.038Z,12.57
2023-05-25T02:16:48.852Z,12.20
2023-05-25T02:19:16.022Z,13.40
2023-05-25T02:21:42.979Z,13.45
2023-05-25T02:24:10.607Z,12.88
2023-05-25T02:26:38.766Z,12.45
2023-05-25T02:29:06.660Z,12.68
2023-05-25T02:31:33.656Z,12.95
2023-05-25T02:34:00.638Z,12.98
2023-05-25T02:36:28.426Z,12.02
2023-05-25T02:38:55.280Z,12.90
2023-05-25T02:41:22.180Z,11.85
2023-05-25T02:43:48.991Z,13.02
2023-05-25T02:46:15.870Z,15.57
2023-05-25T02:48:43.445Z,13.23
2023-05-25T02:51:10.340Z,15.57
2023-05-25T02:53:37.301Z,12.85
2023-05-25T02:56:10.297Z,13.43
2023-05-25T02:58:38.450Z,12.48
2023-05-25T03:01:06.049Z,13.80
2023-05-25T03:03:32.931Z,14.38
2023-05-25T03:05:59.802Z,16.88
2023-05-25T03:08:26.767Z,16.17
2023-05-25T03:10:53.574Z,16.60
2023-05-25T03:13:20.533Z,17.17
2023-05-25T03:15:47.334Z,18.05
2023-05-25T03:18:14.113Z,16.95
2023-05-25T03:20:41.637Z,16.77
2023-05-25T03:23:08.641Z,18.30
2023-05-25T03:25:35.399Z,16.95
2023-05-25T03:28:02.236Z,17.85
2023-05-25T03:30:29.907Z,17.58
2023-05-25T03:32:56.829Z,17.52
2023-05-25T03:35:23.836Z,17.48
2023-05-25T03:37:50.677Z,17.08
2023-05-25T03:40:17.490Z,16.30
2023-05-25T03:42:44.302Z,17.92
2023-05-25T03:45:11.496Z,16.92
2023-05-25T03:47:38.349Z,18.17
2023-05-25T03:50:07.144Z,18.02
2023-05-25T03:52:34.417Z,19.13
2023-05-25T03:55:05.275Z,18.63
2023-05-25T03:57:32.156Z,18.73
2023-05-25T03:59:59.079Z,19.30
2023-05-25T04:02:25.954Z,20.35
2023-05-25T04:04:53.749Z,19.15
2023-05-25T04:07:20.723Z,18.42
2023-05-25T04:09:47.672Z,17.80
2023-05-25T04:12:14.578Z,17.67
2023-05-25T04:14:42.738Z,16.90
2023-05-25T04:17:09.826Z,17.55
2023-05-25T04:19:36.652Z,17.48
2023-05-25T04:22:03.576Z,17.08
2023-05-25T04:24:30.411Z,17.88
2023-05-25T04:26:57.291Z,17.83
2023-05-25T04:29:24.072Z,16.42
2023-05-25T04:31:51.562Z,16.50
2023-05-25T04:34:18.419Z,16.17
2023-05-25T04:36:45.273Z,16.77
2023-05-25T04:39:12.043Z,15.73
2023-05-25T04:41:39.433Z,16.10
2023-05-25T04:44:09.747Z,16.80
2023-05-25T04:46:37.682Z,15.68
2023-05-25T04:49:05.751Z,17.38
2023-05-25T04:51:32.683Z,18.60
2023-05-25T04:53:59.853Z,18.00
2023-05-25T04:56:26.828Z,18.63
2023-05-25T04:58:53.789Z,18.67
2023-05-25T05:01:20.745Z,18.92
2023-05-25T05:03:47.722Z,19.67
2023-05-25T05:06:14.895Z,18.55
2023-05-25T05:08:42.410Z,17.13
2023-05-25T05:11:09.251Z,16.15
2023-05-25T05:13:36.073Z,15.65
2023-05-25T05:16:02.893Z,13.80
2023-05-25T05:18:29.831Z,13.27
2023-05-25T05:20:56.719Z,13.23
2023-05-25T05:23:23.497Z,13.52
2023-05-25T05:25:50.304Z,13.40
2023-05-25T05:28:17.090Z,13.13
2023-05-25T05:30:46.539Z,12.68
2023-05-25T05:33:14.489Z,12.98
2023-05-25T05:35:41.401Z,13.80
2023-05-25T05:38:08.248Z,14.30
2023-05-25T05:40:35.202Z,13.00
2023-05-25T05:43:02.064Z,13.15
2023-05-25T05:45:28.906Z,12.68
2023-05-25T05:47:55.816Z,12.52
2023-05-25T05:50:22.935Z,12.80
2023-05-25T05:52:49.700Z,12.93
2023-05-25T05:55:16.696Z,12.15
2023-05-25T05:57:43.437Z,12.73
2023-05-25T06:00:11.008Z,12.88
2023-05-25T06:02:40.694Z,13.13
2023-05-25T06:05:09.112Z,12.90
2023-05-25T06:07:36.590Z,13.57
2023-05-25T06:10:03.661Z,13.35
2023-05-25T06:12:30.521Z,12.98
2023-05-25T06:14:57.287Z,12.93
2023-05-25T06:17:24.396Z,13.60
2023-05-25T06:19:51.282Z,14.38
2023-05-25T06:22:18.136Z,13.18
2023-05-25T06:24:44.908Z,12.85
2023-05-25T06:27:12.863Z,13.27
2023-05-25T06:29:39.644Z,12.40
2023-05-25T06:32:06.703Z,13.63
2023-05-25T06:34:34.488Z,13.43
2023-05-25T06:37:02.803Z,13.23
2023-05-25T06:39:29.579Z,12.82
2023-05-25T06:41:56.431Z,12.00
2023-05-25T06:44:23.211Z,12.38
2023-05-25T06:46:50.000Z,12.65
2023-05-25T06:49:16.924Z,12.63
2023-05-25T06:51:43.748Z,12.40
2023-05-25T06:54:11.928Z,12.55
2023-05-25T06:56:38.821Z,13.10
2023-05-25T06:59:05.593Z,13.85
2023-05-25T07:01:32.464Z,14.23
2023-05-25T07:03:59.261Z,15.13
2023-05-25T07:06:26.102Z,15.48
2023-05-25T07:08:52.978Z,15.30
2023-05-25T07:11:21.985Z,15.85
2023-05-25T07:13:49.138Z,17.27
2023-05-25T07:16:16.328Z,16.83
2023-05-25T07:18:43.251Z,16.63
2023-05-25T07:21:11.457Z,17.73
2023-05-25T07:23:38.549Z,16.13
2023-05-25T07:26:06.187Z,17.58
2023-05-25T07:28:33.233Z,17.45
2023-05-25T07:31:00.181Z,17.30
2023-05-25T07:33:26.992Z,18.73
2023-05-25T07:35:53.756Z,18.70
2023-05-25T07:38:20.857Z,20.33
2023-05-25T07:40:49.188Z,20.85
2023-05-25T07:43:16.293Z,21.50
2023-05-25T07:45:43.242Z,22.92
2023-05-25T07:48:10.276Z,23.27
2023-05-25T07:50:37.145Z,23.52
2023-05-25T07:53:03.940Z,23.13
2023-05-25T07:55:30.882Z,22.63
2023-05-25T07:57:57.829Z,23.95
2023-05-25T08:00:24.906Z,23.35
2023-05-25T08:02:51.893Z,23.85
2023-05-25T08:05:18.899Z,25.10
2023-05-25T08:07:46.730Z,25.00
2023-05-25T08:10:13.650Z,25.27
2023-05-25T08:12:48.937Z,26.60
2023-05-25T08:15:17.511Z,25.55
2023-05-25T08:17:44.546Z,29.75
2023-05-25T08:20:12.296Z,28.25
2023-05-25T08:22:39.119Z,27.98
2023-05-25T08:25:06.974Z,27.85
2023-05-25T08:27:35.916Z,27.65
2023-05-25T08:30:03.828Z,26.65
2023-05-25T08:32:30.910Z,27.92
2023-05-25T08:34:57.813Z,28.20
2023-05-25T08:37:25.178Z,28.30
2023-05-25T08:39:51.930Z,26.90
2023-05-25T08:42:18.783Z,28.13
2023-05-25T08:44:45.937Z,27.02
2023-05-25T08:47:15.387Z,28.42
2023-05-25T08:49:45.273Z,28.88
2023-05-25T08:52:15.146Z,29.70
2023-05-25T08:54:46.481Z,32.25
2023-05-25T08:57:20.992Z,30.55
2023-05-25T08:59:54.965Z,32.85
2023-05-25T09:02:37.084Z,32.45
2023-05-25T09:05:04.859Z,31.50
2023-05-25T09:07:32.293Z,32.70
2023-05-25T09:10:01.237Z,33.92
2023-05-25T09:12:31.776Z,35.00
2023-05-25T09:14:59.551Z,36.17
2023-05-25T09:17:27.396Z,37.83
2023-05-25T09:19:54.920Z,39.88
2023-05-25T09:22:22.416Z,39.60
2023-05-25T09:24:49.594Z,39.65
2023-05-25T09:27:19.176Z,38.75
2023-05-25T09:29:52.297Z,38.85
2023-05-25T09:32:19.980Z,38.78
2023-05-25T09:34:47.803Z,37.45
2023-05-25T09:37:17.443Z,39.67
2023-05-25T09:39:45.309Z,37.25
2023-05-25T09:42:12.486Z,39.53
2023-05-25T09:44:40.129Z,39.20
2023-05-25T09:47:07.450Z,34.63
2023-05-25T09:49:34.343Z,31.98
2023-05-25T09:52:01.536Z,30.50
2023-05-25T09:54:29.427Z,30.23
2023-05-25T09:56:56.300Z,28.38
2023-05-25T09:59:23.781Z,29.17
2023-05-25T10:01:53.810Z,29.48
2023-05-25T10:04:21.114Z,30.40
2023-05-25T10:06:50.118Z,30.90
2023-05-25T10:09:19.815Z,30.90
2023-05-25T10:11:48.264Z,31.77
2023-05-25T10:14:19.729Z,32.97
2023-05-25T10:16:50.503Z,31.92
2023-05-25T10:19:43.019Z,27.00
2023-05-25T10:22:22.153Z,22.23
2023-05-25T10:25:29.938Z,19.02
2023-05-25T10:28:00.559Z,17.02
2023-05-25T10:30:30.370Z,17.88
2023-05-25T10:32:57.785Z,15.10
2023-05-25T10:35:25.233Z,15.30
2023-05-25T10:37:53.297Z,15.50
2023-05-25T10:40:22.875Z,16.50
2023-05-25T10:42:52.771Z,18.20
2023-05-25T10:45:20.549Z,17.83
2023-05-25T10:47:47.744Z,20.10
2023-05-25T10:50:27.041Z,19.27
2023-05-25T10:53:01.515Z,18.52
2023-05-25T10:55:32.787Z,20.88
2023-05-25T10:58:10.782Z,24.17
2023-05-25T11:00:38.377Z,24.75
2023-05-25T11:03:05.720Z,24.58
2023-05-25T11:05:34.723Z,26.52
2023-05-25T11:08:04.754Z,29.15
2023-05-25T11:10:48.302Z,28.77
2023-05-25T11:16:29.406Z,25.58
2023-05-25T11:18:58.639Z,28.90
2023-05-25T11:21:28.199Z,28.65
2023-05-25T11:24:03.047Z,28.48
2023-05-25T11:26:36.741Z,28.85
2023-05-25T11:29:14.622Z,28.67
2023-05-25T11:31:43.697Z,29.38
2023-05-25T11:34:12.002Z,29.48
2023-05-25T11:36:39.390Z,29.38
2023-05-25T11:39:17.161Z,29.55
2023-05-25T11:41:52.273Z,29.23
2023-05-25T11:44:39.469Z,28.52
2023-05-25T11:47:10.165Z,28.27
2023-05-25T11:49:47.006Z,30.17
2023-05-25T11:52:14.984Z,27.60
2023-05-25T11:54:42.453Z,26.02
2023-05-25T11:57:20.586Z,26.35
2023-05-25T11:59:52.170Z,25.42
2023-05-25T12:02:19.967Z,28.35
2023-05-25T12:05:12.941Z,27.60
2023-05-25T12:07:44.793Z,29.05
2023-05-25T12:10:15.063Z,29.98
2023-05-25T12:12:42.629Z,31.13
2023-05-25T12:15:20.672Z,30.73
2023-05-25T12:17:48.743Z,30.73
2023-05-25T12:20:17.645Z,29.63
2023-05-25T12:22:46.193Z,29.58
2023-05-25T12:25:14.701Z,29.10
2023-05-25T12:27:41.833Z,28.85
2023-05-25T12:30:10.639Z,29.10
2023-05-25T12:33:02.924Z,29.27
2023-05-25T12:35:44.007Z,26.20
2023-05-25T12:38:15.428Z,25.23
2023-05-25T12:40:43.833Z,24.73
2023-05-25T12:43:12.091Z,26.08
2023-05-25T12:45:43.097Z,25.95
2023-05-25T12:48:10.806Z,25.80
2023-05-25T12:50:37.999Z,25.70
2023-05-25T12:53:05.703Z,25.90
2023-05-25T12:55:34.387Z,24.92
2023-05-25T12:58:03.425Z,26.95
2023-05-25T13:00:41.181Z,26.20
2023-05-25T13:03:08.429Z,25.77
2023-05-25T13:05:37.500Z,24.20
2023-05-25T13:08:06.162Z,24.83
2023-05-25T13:10:33.927Z,23.63
2023-05-25T13:13:01.261Z,23.92
2023-05-25T13:15:28.797Z,23.80
2023-05-25T13:17:58.413Z,21.25
2023-05-25T13:20:27.434Z,23.08
2023-05-25T13:22:56.017Z,22.30
2023-05-25T13:25:23.292Z,22.00
2023-05-25T13:27:51.543Z,21.92
2023-05-25T13:30:20.884Z,21.85
2023-05-25T13:32:50.338Z,21.35
2023-05-25T13:35:22.848Z,23.75
2023-05-25T13:37:49.765Z,21.50
2023-05-25T13:40:16.840Z,20.67
2023-05-25T13:42:43.878Z,20.15
2023-05-25T13:45:11.094Z,20.05
2023-05-25T13:47:38.127Z,20.90
2023-05-25T13:50:06.137Z,20.77
2023-05-25T13:52:33.150Z,19.17
2023-05-25T13:55:00.614Z,20.10
2023-05-25T13:57:27.588Z,18.02
2023-05-25T13:59:54.527Z,19.25
2023-05-25T14:02:21.334Z,19.70
2023-05-25T14:04:48.245Z,20.98
2023-05-25T14:07:15.051Z,20.25
2023-05-25T14:09:41.945Z,20.27
2023-05-25T14:12:08.827Z,20.48
2023-05-25T14:14:35.593Z,18.63
2023-05-25T14:17:03.331Z,19.35
2023-05-25T14:19:30.163Z,19.30
2023-05-25T14:22:11.623Z,19.40
2023-05-25T14:24:39.829Z,18.90
2023-05-25T14:27:09.417Z,20.67
2023-05-25T14:29:36.552Z,21.77
2023-05-25T14:32:03.684Z,21.50
2023-05-25T14:34:30.540Z,21.88
2023-05-25T14:36:57.352Z,22.95
2023-05-25T14:39:24.273Z,23.17
2023-05-25T14:41:51.088Z,21.55
2023-05-25T14:44:17.811Z,22.10
2023-05-25T14:46:44.769Z,21.73
2023-05-25T14:49:11.665Z,21.50
2023-05-25T14:51:38.576Z,21.67
2023-05-25T14:54:07.889Z,21.08
2023-05-25T14:56:35.541Z,20.90
2023-05-25T14:59:02.352Z,21.25
2023-05-25T15:01:32.115Z,20.40
2023-05-25T15:03:59.367Z,21.95
2023-05-25T15:06:27.712Z,22.05
2023-05-25T15:08:54.528Z,20.75
2023-05-25T15:11:21.357Z,20.70
2023-05-25T15:13:48.112Z,21.58
2023-05-25T15:16:16.098Z,21.85
2023-05-25T15:18:43.546Z,21.15
2023-05-25T15:21:10.967Z,21.55
2023-05-25T15:23:37.775Z,21.27
2023-05-25T15:26:04.937Z,21.02
2023-05-25T15:28:31.969Z,21.25
2023-05-25T15:31:01.592Z,21.08
2023-05-25T15:33:43.633Z,21.10
2023-05-25T15:36:15.245Z,19.30
2023-05-25T15:38:49.122Z,17.40
2023-05-25T15:41:17.493Z,16.92
2023-05-25T15:43:58.400Z,17.77
2023-05-25T15:46:26.026Z,16.50
2023-05-25T15:48:53.575Z,18.55
2023-05-25T15:51:21.078Z,18.33
2023-05-25T15:53:48.304Z,18.50
2023-05-25T15:56:15.255Z,19.55
2023-05-25T15:58:42.096Z,18.02
2023-05-25T16:01:10.131Z,19.77
2023-05-25T16:03:38.055Z,18.45
2023-05-25T16:06:04.861Z,17.52
2023-05-25T16:08:31.653Z,17.27
2023-05-25T16:10:58.582Z,17.50
2023-05-25T16:13:25.368Z,17.25
2023-05-25T16:15:52.289Z,16.98
2023-05-25T16:18:19.069Z,16.58
2023-05-25T16:20:46.263Z,17.67
2023-05-25T16:23:14.752Z,17.40
2023-05-25T16:25:41.638Z,17.25
2023-05-25T16:28:08.509Z,16.70
2023-05-25T16:30:35.363Z,17.65
2023-05-25T16:33:02.225Z,16.73
2023-05-25T16:35:29.057Z,16.65
2023-05-25T16:37:56.170Z,15.45
2023-05-25T16:40:23.001Z,15.50
2023-05-25T16:42:49.934Z,16.20
2023-05-25T16:45:16.797Z,16.02
2023-05-25T16:47:43.592Z,16.85
2023-05-25T16:50:10.758Z,15.93
2023-05-25T16:52:37.636Z,15.52
2023-05-25T16:55:04.837Z,15.15
2023-05-25T16:57:31.663Z,16.67
2023-05-25T17:00:01.511Z,17.08
2023-05-25T17:02:30.421Z,16.75
2023-05-25T17:04:57.391Z,16.73
2023-05-25T17:07:24.191Z,16.77
2023-05-25T17:09:50.982Z,16.63
2023-05-25T17:12:17.738Z,15.30
2023-05-25T17:14:44.556Z,16.13
2023-05-25T17:17:11.346Z,16.38
2023-05-25T17:19:38.187Z,16.23
2023-05-25T17:22:05.366Z,16.67
2023-05-25T17:24:32.152Z,17.23
2023-05-25T17:26:59.046Z,16.73
2023-05-25T17:29:26.073Z,15.75
2023-05-25T17:31:53.018Z,16.65
2023-05-25T17:34:20.055Z,15.57
2023-05-25T17:36:48.128Z,15.57
2023-05-25T17:39:14.950Z,15.77
2023-05-25T17:41:41.860Z,14.77
2023-05-25T17:44:08.640Z,15.63
2023-05-25T17:46:36.926Z,15.95
2023-05-25T17:49:04.506Z,15.73
2023-05-25T17:51:31.279Z,15.88
2023-05-25T17:53:58.093Z,16.85
2023-05-25T17:56:24.895Z,17.02
2023-05-25T17:58:52.121Z,17.52
2023-05-25T18:01:19.141Z,18.00
2023-05-25T18:03:46.585Z,16.33
2023-05-25T18:06:13.574Z,16.98
2023-05-25T18:08:40.411Z,17.63
2023-05-25T18:11:07.332Z,18.38
2023-05-25T18:13:34.149Z,17.73
2023-05-25T18:16:01.094Z,17.75
2023-05-25T18:18:27.869Z,17.98
2023-05-25T18:20:54.699Z,17.60
2023-05-25T18:23:22.444Z,18.33
2023-05-25T18:25:49.251Z,16.88
2023-05-25T18:28:16.047Z,16.77
2023-05-25T18:30:42.993Z,18.33
2023-05-25T18:33:10.706Z,17.88
2023-05-25T18:35:38.315Z,17.25
2023-05-25T18:38:08.857Z,19.75
2023-05-25T18:40:35.795Z,17.52
2023-05-25T18:43:02.579Z,19.48
2023-05-25T18:45:29.483Z,18.17
2023-05-25T18:47:56.372Z,18.48
2023-05-25T18:50:23.273Z,18.00
2023-05-25T18:52:51.503Z,18.55
2023-05-25T18:55:19.242Z,18.52
2023-05-25T18:57:47.115Z,18.42
2023-05-25T19:00:14.477Z,20.17
2023-05-25T19:02:41.442Z,19.73
2023-05-25T19:05:11.622Z,19.45
2023-05-25T19:07:54.767Z,19.42
2023-05-25T19:10:25.562Z,20.08
2023-05-25T19:12:52.404Z,20.23
2023-05-25T19:15:19.261Z,19.60
2023-05-25T19:17:46.815Z,19.10
2023-05-25T19:20:13.892Z,19.67
2023-05-25T19:22:41.867Z,18.70
2023-05-25T19:25:08.871Z,20.15
2023-05-25T19:27:36.522Z,20.00
2023-05-25T19:30:04.019Z,19.58
2023-05-25T19:32:31.595Z,20.17
2023-05-25T19:34:58.489Z,20.00
2023-05-25T19:37:26.598Z,20.10
2023-05-25T19:39:53.459Z,20.17
2023-05-25T19:42:20.557Z,20.92
2023-05-25T19:44:47.357Z,21.02
2023-05-25T19:47:14.376Z,19.98
2023-05-25T19:49:41.239Z,20.17
2023-05-25T19:52:08.117Z,20.77
2023-05-25T19:54:35.002Z,20.58
2023-05-25T19:57:02.894Z,20.13
2023-05-25T19:59:31.323Z,20.15
2023-05-25T20:01:58.509Z,20.80
2023-05-25T20:04:25.576Z,20.77
2023-05-25T20:06:52.789Z,20.73
2023-05-25T20:09:19.648Z,21.83
2023-05-25T20:11:46.449Z,20.75
2023-05-25T20:14:13.238Z,20.45
2023-05-25T20:16:40.193Z,21.45
2023-05-25T20:19:07.740Z,20.60
2023-05-25T20:21:35.709Z,20.85
2023-05-25T20:24:03.555Z,20.33
2023-05-25T20:26:30.516Z,20.73
2023-05-25T20:28:57.453Z,22.02
2023-05-25T20:31:27.307Z,21.33
2023-05-25T20:33:54.090Z,22.10
2023-05-25T20:36:21.096Z,21.73
2023-05-25T20:38:47.893Z,22.27
2023-05-25T20:41:14.695Z,22.00
2023-05-25T20:43:41.591Z,22.02
2023-05-25T20:46:09.169Z,22.42
2023-05-25T20:48:39.682Z,22.55
2023-05-25T20:51:06.482Z,23.02
2023-05-25T20:53:33.324Z,22.65
2023-05-25T20:56:02.201Z,21.83
2023-05-25T20:58:29.043Z,21.75
2023-05-25T21:00:55.985Z,19.85
2023-05-25T21:03:22.905Z,21.13
2023-05-25T21:05:50.048Z,20.35
2023-05-25T21:08:16.970Z,20.25
2023-05-25T21:10:44.007Z,20.27
2023-05-25T21:13:10.922Z,19.58
2023-05-25T21:15:37.677Z,20.48
2023-05-25T21:18:05.793Z,20.00
2023-05-25T21:20:33.450Z,20.45
2023-05-25T21:23:01.241Z,19.80
2023-05-25T21:25:30.912Z,20.42
2023-05-25T21:27:57.893Z,20.70
2023-05-25T21:30:24.765Z,21.08
2023-05-25T21:32:51.679Z,21.70
2023-05-25T21:35:18.841Z,21.65
2023-05-25T21:37:46.050Z,21.35
2023-05-25T21:40:13.152Z,21.15
2023-05-25T21:42:39.881Z,22.90
2023-05-25T21:45:07.085Z,21.20
2023-05-25T21:47:34.026Z,21.63
2023-05-25T21:50:00.928Z,21.83
2023-05-25T21:52:27.685Z,21.70
2023-05-25T21:54:54.597Z,21.70
2023-05-25T21:57:21.407Z,21.70
2023-05-25T21:59:48.280Z,21.50
2023-05-25T22:02:16.296Z,21.67
2023-05-25T22:04:43.086Z,21.80
2023-05-25T22:07:09.857Z,21.75
2023-05-25T22:09:36.637Z,21.38
2023-05-25T22:12:04.067Z,22.55
2023-05-25T22:14:30.870Z,22.65
2023-05-25T22:16:58.141Z,23.10
2023-05-25T22:19:24.947Z,22.67
2023-05-25T22:21:53.479Z,24.17
2023-05-25T22:24:23.428Z,22.17
2023-05-25T22:26:50.268Z,23.42
2023-05-25T22:29:17.023Z,24.40
2023-05-25T22:31:43.772Z,22.58
2023-05-25T22:34:10.605Z,24.23
2023-05-25T22:36:37.518Z,24.42
2023-05-25T22:39:04.407Z,24.58
2023-05-25T22:41:31.411Z,24.27
2023-05-25T22:43:58.799Z,25.25
2023-05-25T22:46:25.809Z,23.75
2023-05-25T22:48:52.639Z,23.05
2023-05-25T22:51:19.399Z,23.73
2023-05-25T22:53:46.215Z,23.48
2023-05-25T22:56:12.999Z,22.50
2023-05-25T22:58:39.947Z,21.10
2023-05-25T23:01:06.902Z,20.05
2023-05-25T23:03:33.952Z,20.40
2023-05-25T23:06:00.799Z,19.60
2023-05-25T23:08:27.783Z,20.55
2023-05-25T23:10:54.537Z,19.02
2023-05-25T23:13:24.186Z,19.75
2023-05-25T23:15:51.286Z,19.85
2023-05-25T23:18:18.121Z,19.05
2023-05-25T23:20:45.071Z,21.67
2023-05-25T23:23:12.476Z,21.38
2023-05-25T23:25:39.291Z,21.33
2023-05-25T23:28:06.128Z,21.52
2023-05-25T23:30:33.006Z,22.33
2023-05-25T23:33:00.745Z,21.15
2023-05-25T23:35:28.432Z,22.35
2023-05-25T23:37:55.270Z,23.73
2023-05-25T23:40:22.077Z,23.48
2023-05-25T23:42:48.888Z,25.40
2023-05-25T23:45:15.656Z,24.67
2023-05-25T23:47:42.538Z,23.95
2023-05-25T23:50:09.951Z,23.77
2023-05-25T23:52:36.821Z,23.02
2023-05-25T23:55:06.375Z,23.02
2023-05-25T23:57:33.170Z,23.80
2023-05-25T23:59:59.936Z,19.52
